Time;durP1;ratioP1;P1;durP2;ratioP2;P2;SDS_P1;SDS_P2;PMS_P1;PMS_P2;Temp;Humidity;BMP_temperature;BMP_pressure;BME280_temperature;BME280_humidity;BME280_pressure;Samples;Min_cycle;Max_cycle;Signal;HPM_P1;HPM_P2
2021/06/02 00:01:08;;;;;;;7.28;4.60;;;22.00;42.60;;;;;;6167989;28;81010;-65
2021/06/02 00:04:09;;;;;;;9.38;4.07;;;22.00;42.80;;;;;;6168124;28;83465;-66
2021/06/02 00:07:10;;;;;;;6.20;4.25;;;22.00;42.60;;;;;;6168862;28;80458;-66
2021/06/02 00:10:10;;;;;;;7.55;4.53;;;22.00;42.80;;;;;;6167318;28;80507;-67
2021/06/02 00:13:11;;;;;;;6.22;4.50;;;22.00;42.60;;;;;;6161462;28;81260;-67
2021/06/02 00:16:11;;;;;;;7.60;4.38;;;22.00;43.10;;;;;;6178907;28;82812;-67
2021/06/02 00:19:12;;;;;;;8.55;4.40;;;22.00;42.60;;;;;;6179006;28;80697;-67
2021/06/02 00:22:12;;;;;;;6.28;4.28;;;22.00;42.60;;;;;;6179355;28;80586;-66
2021/06/02 00:25:13;;;;;;;9.98;4.50;;;22.00;42.40;;;;;;6179744;28;81432;-67
2021/06/02 00:28:13;;;;;;;9.77;4.40;;;22.00;42.60;;;;;;6168562;28;80479;-67
2021/06/02 00:31:14;;;;;;;8.57;4.70;;;22.00;42.70;;;;;;6155735;28;80467;-67
2021/06/02 00:34:14;;;;;;;6.65;4.07;;;22.00;42.50;;;;;;6168795;28;81899;-66
2021/06/02 00:37:15;;;;;;;7.22;4.50;;;22.00;42.60;;;;;;6161198;28;81460;-66
2021/06/02 00:40:15;;;;;;;8.38;4.47;;;22.00;42.60;;;;;;6166467;28;80796;-67
2021/06/02 00:43:16;;;;;;;8.38;4.18;;;22.00;42.50;;;;;;6162239;28;80695;-67
2021/06/02 00:46:17;;;;;;;6.80;4.43;;;22.00;42.60;;;;;;6155697;28;80426;-67
2021/06/02 00:49:22;;;;;;;7.57;4.72;;;21.90;42.40;;;;;;6169314;28;80771;-66
2021/06/02 00:52:23;;;;;;;6.65;4.30;;;21.90;42.50;;;;;;6178417;28;81922;-66
2021/06/02 00:55:23;;;;;;;8.93;5.00;;;21.90;42.40;;;;;;6179508;28;81416;-66
2021/06/02 00:58:24;;;;;;;6.85;4.82;;;21.90;42.40;;;;;;6181402;28;81232;-66
2021/06/02 01:01:25;;;;;;;6.95;4.57;;;21.90;42.40;;;;;;6167689;28;81427;-67
2021/06/02 01:04:26;;;;;;;6.80;4.00;;;21.90;42.30;;;;;;6174381;28;81731;-67
2021/06/02 01:07:27;;;;;;;5.10;3.90;;;21.90;42.60;;;;;;6184177;28;81053;-67
2021/06/02 01:10:27;;;;;;;8.43;5.28;;;21.90;42.50;;;;;;6181380;28;80604;-67
2021/06/02 01:13:28;;;;;;;8.85;4.75;;;21.90;42.30;;;;;;6181817;28;81980;-67
2021/06/02 01:16:28;;;;;;;8.10;4.30;;;21.90;42.30;;;;;;6182873;28;81216;-68
2021/06/02 01:19:29;;;;;;;9.00;4.30;;;21.90;42.40;;;;;;6182897;28;81496;-68
2021/06/02 01:22:33;;;;;;;7.88;4.78;;;21.90;42.40;;;;;;6166514;28;81564;-67
2021/06/02 01:25:34;;;;;;;7.00;4.88;;;21.90;42.30;;;;;;6174203;28;80579;-67
2021/06/02 01:28:34;;;;;;;6.40;4.28;;;21.90;42.20;;;;;;6167358;28;80236;-67
2021/06/02 01:31:35;;;;;;;9.57;4.93;;;21.90;42.20;;;;;;6159204;28;80226;-67
2021/06/02 01:34:35;;;;;;;7.18;4.22;;;21.90;42.40;;;;;;6174085;28;80765;-67
2021/06/02 01:37:36;;;;;;;7.88;4.50;;;21.90;42.50;;;;;;6166097;28;80580;-66
2021/06/02 01:40:36;;;;;;;7.60;4.10;;;21.90;42.40;;;;;;6174888;28;80652;-66
2021/06/02 01:43:37;;;;;;;8.40;4.00;;;21.90;42.30;;;;;;6183077;28;80907;-66
2021/06/02 01:46:38;;;;;;;6.07;4.30;;;21.90;42.40;;;;;;6182547;28;82591;-66
2021/06/02 01:49:38;;;;;;;7.32;4.45;;;21.90;42.40;;;;;;6165437;28;80829;-68
2021/06/02 01:52:39;;;;;;;7.90;4.45;;;21.90;42.20;;;;;;6174930;28;83314;-67
2021/06/02 01:55:39;;;;;;;8.38;4.30;;;21.90;42.40;;;;;;6182850;28;80624;-68
2021/06/02 01:58:40;;;;;;;6.70;4.47;;;21.90;42.40;;;;;;6186642;28;81744;-67
2021/06/02 02:01:40;;;;;;;6.65;4.22;;;21.80;42.20;;;;;;6173836;28;80203;-68
2021/06/02 02:04:41;;;;;;;8.23;5.28;;;21.90;42.50;;;;;;6181625;28;81191;-68
2021/06/02 02:07:41;;;;;;;7.43;4.55;;;21.90;42.60;;;;;;6188064;28;83435;-68
2021/06/02 02:10:42;;;;;;;8.65;5.38;;;21.90;42.50;;;;;;6175939;28;80901;-67
2021/06/02 02:13:42;;;;;;;6.47;4.65;;;21.90;42.50;;;;;;6180672;28;81392;-68
2021/06/02 02:16:43;;;;;;;11.75;4.95;;;21.90;42.30;;;;;;6176468;28;80217;-67
2021/06/02 02:19:43;;;;;;;8.98;4.80;;;21.90;42.40;;;;;;6165268;28;80331;-67
2021/06/02 02:22:44;;;;;;;6.55;4.40;;;21.90;42.40;;;;;;6174349;28;83991;-68
2021/06/02 02:25:45;;;;;;;9.98;4.72;;;21.90;42.50;;;;;;6196528;28;80172;-67
2021/06/02 02:28:45;;;;;;;7.35;4.68;;;21.90;42.70;;;;;;6181227;28;81597;-69
2021/06/02 02:31:46;;;;;;;9.80;5.80;;;21.90;42.80;;;;;;6163589;28;81194;-67
2021/06/02 02:34:46;;;;;;;8.13;4.75;;;21.90;42.70;;;;;;6170446;28;80344;-67
2021/06/02 02:37:47;;;;;;;8.43;4.88;;;21.90;42.60;;;;;;6177058;28;80992;-67
2021/06/02 02:40:47;;;;;;;8.88;5.20;;;21.80;42.50;;;;;;6176784;28;80236;-66
2021/06/02 02:43:48;;;;;;;7.50;5.03;;;21.80;42.70;;;;;;6163604;28;80844;-67
2021/06/02 02:46:48;;;;;;;10.63;5.38;;;21.90;42.90;;;;;;6174008;28;80331;-67
2021/06/02 02:49:49;;;;;;;10.68;5.38;;;21.90;42.90;;;;;;6156637;28;80519;-65
2021/06/02 02:52:50;;;;;;;8.90;5.43;;;21.90;42.90;;;;;;6174339;28;80478;-66
2021/06/02 02:55:50;;;;;;;11.05;5.22;;;21.80;42.80;;;;;;6188838;28;80973;-66
2021/06/02 02:58:51;;;;;;;11.90;6.57;;;21.90;43.00;;;;;;6156958;28;80335;-67
2021/06/02 03:01:52;;;;;;;9.15;5.63;;;21.90;42.50;;;;;;6173883;28;81509;-67
2021/06/02 03:04:52;;;;;;;9.57;5.60;;;21.90;42.80;;;;;;6162310;28;80201;-67
2021/06/02 03:07:53;;;;;;;7.20;5.03;;;21.80;42.80;;;;;;6156007;28;80421;-67
2021/06/02 03:10:54;;;;;;;8.98;4.95;;;21.90;42.70;;;;;;6173211;28;80900;-67
2021/06/02 03:13:54;;;;;;;7.57;4.90;;;21.80;42.60;;;;;;6160209;28;80815;-66
2021/06/02 03:16:55;;;;;;;9.93;4.82;;;21.80;42.60;;;;;;6157411;28;81120;-66
2021/06/02 03:19:55;;;;;;;9.35;4.85;;;21.80;42.60;;;;;;6176189;28;81502;-66
2021/06/02 03:22:56;;;;;;;9.45;5.18;;;21.80;42.70;;;;;;6180534;28;80881;-67
2021/06/02 03:25:56;;;;;;;8.98;5.63;;;21.80;42.70;;;;;;6160834;28;80540;-67
2021/06/02 03:28:58;;;;;;;8.05;4.75;;;21.80;42.90;;;;;;6176165;28;81240;-67
2021/06/02 03:31:59;;;;;;;9.23;5.32;;;21.80;42.90;;;;;;6179194;28;81340;-68
2021/06/02 03:35:00;;;;;;;9.23;5.18;;;21.80;42.70;;;;;;6158193;28;81553;-65
2021/06/02 03:38:00;;;;;;;9.25;4.45;;;21.80;42.90;;;;;;6176234;28;80825;-65
2021/06/02 03:41:01;;;;;;;9.23;4.97;;;21.80;42.70;;;;;;6178199;28;80944;-66
2021/06/02 03:44:01;;;;;;;8.75;4.82;;;21.80;42.80;;;;;;6180443;28;81644;-65
2021/06/02 03:47:02;;;;;;;8.75;5.35;;;21.80;43.00;;;;;;6179685;28;80630;-67
2021/06/02 03:50:02;;;;;;;12.60;5.28;;;21.80;43.00;;;;;;6159668;28;81984;-66
2021/06/02 03:53:03;;;;;;;9.88;5.10;;;21.80;43.00;;;;;;6152906;28;80559;-65
2021/06/02 03:56:03;;;;;;;7.35;5.18;;;21.80;43.10;;;;;;6156037;28;81119;-66
2021/06/02 03:59:04;;;;;;;9.25;5.32;;;21.80;43.00;;;;;;6171803;28;82764;-64
2021/06/02 04:02:04;;;;;;;10.27;5.40;;;21.80;43.60;;;;;;6159603;28;83102;-66
2021/06/02 04:05:05;;;;;;;10.55;5.13;;;21.80;43.60;;;;;;6152856;28;80784;-66
2021/06/02 04:08:05;;;;;;;9.20;5.70;;;21.80;43.30;;;;;;6175323;28;83070;-66
2021/06/02 04:11:06;;;;;;;14.70;5.30;;;21.80;43.60;;;;;;6178670;28;80335;-64
2021/06/02 04:14:07;;;;;;;14.02;6.00;;;21.80;43.70;;;;;;6178251;28;80823;-66
2021/06/02 04:17:08;;;;;;;9.73;5.85;;;21.80;43.90;;;;;;6157803;28;81628;-65
2021/06/02 04:20:08;;;;;;;12.52;5.57;;;21.80;43.90;;;;;;6175933;28;80836;-64
2021/06/02 04:23:09;;;;;;;12.80;5.53;;;21.80;43.80;;;;;;6179786;28;83867;-64
2021/06/02 04:26:09;;;;;;;16.00;5.55;;;21.80;44.20;;;;;;6158551;28;80564;-65
2021/06/02 04:29:10;;;;;;;12.75;4.95;;;21.80;44.40;;;;;;6150639;28;81681;-65
2021/06/02 04:32:11;;;;;;;12.57;5.82;;;21.80;44.70;;;;;;6155261;28;80511;-65
2021/06/02 04:35:11;;;;;;;9.93;5.78;;;21.80;44.20;;;;;;6180428;28;80641;-65
2021/06/02 04:38:12;;;;;;;16.60;6.25;;;21.80;43.30;;;;;;6184717;28;80930;-65
2021/06/02 04:41:13;;;;;;;40.72;5.95;;;21.90;44.10;;;;;;6181458;28;80615;-65
2021/06/02 04:44:13;;;;;;;13.52;5.35;;;21.90;43.70;;;;;;6183491;28;80180;-65
2021/06/02 04:47:14;;;;;;;10.00;5.18;;;21.90;45.10;;;;;;6198523;28;80820;-65
2021/06/02 04:50:14;;;;;;;8.63;5.03;;;21.90;45.20;;;;;;6183990;28;81279;-65
2021/06/02 04:53:15;;;;;;;8.60;4.95;;;21.90;44.00;;;;;;6183791;28;80367;-65
2021/06/02 04:56:15;;;;;;;10.93;5.97;;;21.90;43.90;;;;;;6183624;28;80725;-66
2021/06/02 04:59:16;;;;;;;10.60;6.22;;;21.90;44.70;;;;;;6182745;28;80432;-65
2021/06/02 05:02:18;;;;;;;11.23;5.15;;;21.90;44.10;;;;;;6183587;28;80765;-65
2021/06/02 05:05:18;;;;;;;9.88;5.68;;;21.90;44.60;;;;;;6180763;28;80668;-64
2021/06/02 05:08:19;;;;;;;9.23;5.40;;;21.90;44.80;;;;;;6183122;28;80618;-66
2021/06/02 05:11:19;;;;;;;10.77;5.75;;;21.90;45.10;;;;;;6191016;28;81150;-66
2021/06/02 05:14:20;;;;;;;8.02;5.82;;;21.90;45.40;;;;;;6159824;28;80504;-65
2021/06/02 05:17:20;;;;;;;10.50;5.60;;;21.90;45.40;;;;;;6165585;28;80376;-65
2021/06/02 05:20:24;;;;;;;10.50;6.32;;;21.90;45.70;;;;;;6156325;28;80457;-65
2021/06/02 05:23:25;;;;;;;12.27;5.30;;;22.00;45.70;;;;;;6176881;28;81514;-65
2021/06/02 05:26:25;;;;;;;16.02;6.38;;;22.00;45.70;;;;;;6158430;28;80466;-65
2021/06/02 05:29:26;;;;;;;14.45;5.65;;;22.00;45.40;;;;;;6180073;28;80769;-65
2021/06/02 05:32:26;;;;;;;10.50;6.50;;;22.00;45.20;;;;;;6181887;28;80931;-63
2021/06/02 05:35:27;;;;;;;13.23;6.13;;;22.00;44.80;;;;;;6156380;28;81423;-65
2021/06/02 05:38:27;;;;;;;10.43;5.53;;;22.00;44.20;;;;;;6174107;28;80394;-65
2021/06/02 05:41:28;;;;;;;13.50;6.20;;;22.00;44.40;;;;;;6170750;28;80505;-63
2021/06/02 05:44:28;;;;;;;9.73;5.80;;;21.90;44.20;;;;;;6181631;28;80725;-62
2021/06/02 05:47:29;;;;;;;12.55;6.28;;;22.00;44.60;;;;;;6182935;28;81076;-64
2021/06/02 05:50:29;;;;;;;12.23;6.10;;;21.90;44.80;;;;;;6152091;28;83520;-64
2021/06/02 05:53:30;;;;;;;11.65;5.75;;;22.00;44.50;;;;;;6158022;28;80771;-67
2021/06/02 05:56:30;;;;;;;11.82;6.47;;;22.00;45.00;;;;;;6180554;28;80511;-66
2021/06/02 05:59:31;;;;;;;13.65;6.57;;;22.00;45.10;;;;;;6181271;28;80290;-66
2021/06/02 06:02:32;;;;;;;10.63;5.82;;;22.00;45.00;;;;;;6180556;28;80749;-67
2021/06/02 06:05:32;;;;;;;11.50;5.35;;;22.00;45.20;;;;;;6182217;28;80359;-67
2021/06/02 06:08:33;;;;;;;10.40;5.95;;;22.00;45.00;;;;;;6182419;28;80729;-67
2021/06/02 06:11:33;;;;;;;9.07;5.65;;;22.00;45.20;;;;;;6158155;28;80879;-67
2021/06/02 06:14:34;;;;;;;11.13;5.80;;;22.00;45.00;;;;;;6156254;28;83270;-65
2021/06/02 06:17:34;;;;;;;12.90;6.47;;;22.00;45.00;;;;;;6180658;28;86068;-64
2021/06/02 06:20:35;;;;;;;15.65;6.95;;;22.10;44.70;;;;;;6169083;28;80749;-66
2021/06/02 06:23:35;;;;;;;15.43;7.72;;;22.00;44.90;;;;;;6181817;28;81642;-67
2021/06/02 06:26:36;;;;;;;14.50;6.85;;;22.00;45.60;;;;;;6157289;28;80949;-66
2021/06/02 06:29:36;;;;;;;19.02;7.40;;;22.00;45.50;;;;;;6173373;28;80509;-66
2021/06/02 06:32:37;;;;;;;12.25;6.90;;;22.00;45.40;;;;;;6153217;28;81298;-67
2021/06/02 06:35:40;;;;;;;16.35;7.05;;;22.00;45.00;;;;;;6181258;28;80411;-68
2021/06/02 06:38:40;;;;;;;16.08;6.63;;;22.00;44.80;;;;;;6180020;28;80677;-67
2021/06/02 06:41:41;;;;;;;12.00;7.50;;;22.00;44.30;;;;;;6180109;28;81344;-66
2021/06/02 06:44:41;;;;;;;14.40;7.13;;;22.00;44.50;;;;;;6158224;28;81459;-67
2021/06/02 06:47:42;;;;;;;13.75;7.43;;;22.00;44.50;;;;;;6179808;28;80522;-66
2021/06/02 06:50:42;;;;;;;13.68;6.25;;;22.00;44.10;;;;;;6181505;28;81012;-67
2021/06/02 06:53:43;;;;;;;12.60;7.05;;;22.00;44.30;;;;;;6180297;28;80444;-67
2021/06/02 06:56:44;;;;;;;20.45;7.05;;;22.00;44.60;;;;;;6172481;28;81258;-67
2021/06/02 06:59:45;;;;;;;12.25;6.60;;;22.00;44.70;;;;;;6156846;28;80947;-68
2021/06/02 07:02:46;;;;;;;14.88;7.53;;;22.00;45.00;;;;;;6179620;28;80682;-68
2021/06/02 07:05:46;;;;;;;13.90;6.38;;;22.00;44.90;;;;;;6173264;28;83149;-67
2021/06/02 07:08:49;;;;;;;12.63;6.72;;;22.00;45.00;;;;;;6180916;28;80242;-67
2021/06/02 07:11:49;;;;;;;12.60;7.05;;;22.00;44.90;;;;;;6181141;28;80682;-67
2021/06/02 07:14:50;;;;;;;15.68;7.03;;;21.90;45.10;;;;;;6179167;28;80716;-68
2021/06/02 07:17:51;;;;;;;13.70;6.97;;;21.90;45.00;;;;;;6156141;28;82486;-67
2021/06/02 07:20:51;;;;;;;16.70;7.30;;;22.00;45.10;;;;;;6150436;28;81597;-67
2021/06/02 07:23:52;;;;;;;14.20;6.80;;;22.00;45.10;;;;;;6155251;28;81214;-68
2021/06/02 07:26:52;;;;;;;14.88;6.75;;;21.90;45.20;;;;;;6156524;28;80553;-67
2021/06/02 07:29:53;;;;;;;14.60;6.10;;;22.00;44.70;;;;;;6157065;28;82429;-67
2021/06/02 07:32:53;;;;;;;9.70;6.13;;;22.00;44.40;;;;;;6176929;28;81441;-67
2021/06/02 07:35:54;;;;;;;11.73;6.00;;;22.00;44.50;;;;;;6156914;28;86930;-68
2021/06/02 07:38:54;;;;;;;9.30;5.43;;;21.90;44.20;;;;;;6153123;28;80277;-68
2021/06/02 07:41:55;;;;;;;11.68;5.70;;;22.00;44.30;;;;;;6155322;28;80305;-67
2021/06/02 07:44:55;;;;;;;12.00;6.32;;;21.90;44.30;;;;;;6159362;28;80899;-68
2021/06/02 07:47:56;;;;;;;13.55;5.93;;;22.00;45.20;;;;;;6176211;28;80407;-68
2021/06/02 07:50:56;;;;;;;17.23;6.63;;;22.00;44.40;;;;;;6158603;28;80554;-68
2021/06/02 07:53:57;;;;;;;12.27;6.15;;;22.00;44.30;;;;;;6180079;28;80170;-67
2021/06/02 07:56:57;;;;;;;12.00;5.78;;;22.00;44.50;;;;;;6170726;28;81470;-67
2021/06/02 07:59:58;;;;;;;11.30;6.15;;;22.00;44.50;;;;;;6159697;28;81718;-67
2021/06/02 08:02:58;;;;;;;13.05;5.70;;;22.00;44.30;;;;;;6179749;28;80806;-67
2021/06/02 08:05:59;;;;;;;10.75;5.95;;;22.00;44.20;;;;;;6183981;28;80257;-67
2021/06/02 08:08:59;;;;;;;12.25;5.47;;;22.00;44.10;;;;;;6177234;28;80387;-67
2021/06/02 08:12:00;;;;;;;10.18;4.53;;;22.00;44.60;;;;;;6156422;28;80560;-67
2021/06/02 08:15:01;;;;;;;9.35;5.28;;;22.00;44.20;;;;;;6180597;28;80676;-67
2021/06/02 08:18:02;;;;;;;6.80;4.15;;;22.10;43.60;;;;;;6155795;28;80880;-67
2021/06/02 08:21:03;;;;;;;7.53;3.83;;;22.00;43.30;;;;;;6160218;28;80735;-68
2021/06/02 08:24:03;;;;;;;7.20;3.90;;;22.00;41.20;;;;;;6162719;28;80317;-68
2021/06/02 08:27:04;;;;;;;5.65;3.88;;;22.00;41.80;;;;;;6184612;28;81661;-67
2021/06/02 08:30:04;;;;;;;17.13;5.35;;;22.00;41.10;;;;;;6181899;28;83344;-67
2021/06/02 08:33:05;;;;;;;7.93;3.78;;;22.00;41.50;;;;;;6180889;28;81520;-67
2021/06/02 08:36:05;;;;;;;10.70;3.75;;;22.00;41.20;;;;;;6183751;28;80254;-67
2021/06/02 08:39:07;;;;;;;7.25;3.60;;;22.00;40.20;;;;;;6199151;28;81365;-67
2021/06/02 08:42:08;;;;;;;5.40;3.08;;;22.00;39.30;;;;;;6176878;28;81640;-67
2021/06/02 08:45:08;;;;;;;4.70;3.35;;;22.00;39.60;;;;;;6163689;28;80653;-66
2021/06/02 08:48:09;;;;;;;4.00;2.80;;;22.00;39.40;;;;;;6179368;28;82581;-67
2021/06/02 08:51:09;;;;;;;6.07;3.28;;;22.00;40.10;;;;;;6183711;28;80530;-67
2021/06/02 08:54:10;;;;;;;4.43;3.33;;;22.00;39.90;;;;;;6178105;28;81127;-66
2021/06/02 08:57:10;;;;;;;6.55;3.20;;;22.00;39.80;;;;;;6149157;28;80841;-65
2021/06/02 09:00:11;;;;;;;6.88;3.88;;;22.00;39.90;;;;;;6158193;28;80217;-65
2021/06/02 09:03:12;;;;;;;10.40;4.13;;;22.00;39.70;;;;;;6172261;28;80533;-67
2021/06/02 09:06:12;;;;;;;9.45;3.65;;;22.00;39.10;;;;;;6172261;28;80533;-67
2021/06/02 09:09:13;;;;;;;5.93;3.30;;;22.00;38.50;;;;;;6153507;28;80420;-66
2021/06/02 09:12:15;;;;;;;6.57;3.08;;;22.10;38.30;;;;;;6163707;28;80710;-67
2021/06/02 09:15:15;;;;;;;15.90;3.40;;;22.00;38.10;;;;;;6176605;27;81421;-64
2021/06/02 09:18:16;;;;;;;6.38;3.05;;;22.00;37.20;;;;;;6159092;28;80887;-65
2021/06/02 09:21:16;;;;;;;12.23;3.92;;;22.00;37.30;;;;;;6175796;27;81643;-64
2021/06/02 09:24:17;;;;;;;4.82;2.90;;;22.00;36.70;;;;;;6172459;28;80742;-63
2021/06/02 09:27:17;;;;;;;10.32;3.53;;;22.00;35.60;;;;;;6155873;28;81298;-63
2021/06/02 09:30:18;;;;;;;11.20;3.92;;;22.10;37.20;;;;;;6153681;28;80385;-61
2021/06/02 09:33:18;;;;;;;6.32;2.75;;;22.00;35.20;;;;;;6153660;28;82041;-62
2021/06/02 09:36:19;;;;;;;7.28;2.97;;;22.00;35.70;;;;;;6155490;28;82812;-61
2021/06/02 09:39:21;;;;;;;4.55;2.08;;;22.00;34.30;;;;;;6155596;28;80551;-61
2021/06/02 09:42:23;;;;;;;7.13;2.30;;;21.90;33.70;;;;;;6154252;28;81509;-62
2021/06/02 09:45:24;;;;;;;7.70;2.60;;;21.90;35.20;;;;;;6157119;28;82763;-64
2021/06/02 09:48:24;;;;;;;5.32;2.53;;;22.00;35.00;;;;;;6169165;28;81410;-65
2021/06/02 09:51:25;;;;;;;6.30;2.47;;;22.00;34.90;;;;;;6156465;28;80593;-64
2021/06/02 09:54:25;;;;;;;8.40;2.97;;;22.00;34.30;;;;;;6166758;28;81972;-64
2021/06/02 09:57:26;;;;;;;4.68;2.72;;;22.00;34.40;;;;;;6160400;28;80518;-65
2021/06/02 10:00:26;;;;;;;5.90;2.63;;;22.00;33.40;;;;;;6176789;28;81010;-64
2021/06/02 10:03:27;;;;;;;10.20;2.90;;;21.90;34.40;;;;;;6170062;28;80629;-64
2021/06/02 10:06:28;;;;;;;4.63;2.65;;;21.90;33.70;;;;;;6151425;28;80420;-64
2021/06/02 10:09:29;;;;;;;3.75;2.50;;;21.90;34.30;;;;;;6153846;28;81117;-65
2021/06/02 10:12:29;;;;;;;5.28;2.33;;;22.00;34.70;;;;;;6158589;28;81809;-63
2021/06/02 10:15:30;;;;;;;4.32;2.63;;;22.10;34.80;;;;;;6165443;28;81368;-64
2021/06/02 10:18:31;;;;;;;2.95;2.30;;;22.10;35.20;;;;;;6158566;28;81599;-64
2021/06/02 10:21:31;;;;;;;4.47;2.75;;;22.10;35.30;;;;;;6153882;28;80493;-64
2021/06/02 10:24:32;;;;;;;4.22;2.40;;;22.10;35.50;;;;;;6157926;28;80330;-64
2021/06/02 10:27:32;;;;;;;7.88;3.30;;;22.10;35.80;;;;;;6168194;28;81040;-64
2021/06/02 10:30:33;;;;;;;3.33;2.22;;;22.20;36.00;;;;;;6147601;28;83931;-63
2021/06/02 10:33:33;;;;;;;5.03;2.50;;;22.20;36.30;;;;;;6151110;28;81507;-62
2021/06/02 10:36:34;;;;;;;4.95;2.30;;;22.20;36.10;;;;;;6159400;28;80601;-63
2021/06/02 10:39:35;;;;;;;6.80;2.80;;;22.20;36.50;;;;;;6179693;28;80963;-63
2021/06/02 10:42:35;;;;;;;8.10;2.40;;;22.20;37.00;;;;;;6177232;28;80438;-65
2021/06/02 10:45:36;;;;;;;4.20;2.63;;;22.20;37.20;;;;;;6178424;28;81892;-65
2021/06/02 10:48:36;;;;;;;3.90;2.50;;;22.20;37.20;;;;;;6172939;27;83351;-65
2021/06/02 10:51:37;;;;;;;3.13;2.25;;;22.30;37.90;;;;;;6172439;28;80324;-63
2021/06/02 10:54:40;;;;;;;5.93;2.25;;;22.20;37.50;;;;;;6169323;28;81869;-63
2021/06/02 10:57:41;;;;;;;3.42;2.20;;;22.20;37.80;;;;;;6163871;28;80333;-63
2021/06/02 11:00:41;;;;;;;5.90;2.67;;;22.30;38.80;;;;;;6169327;28;81783;-64
2021/06/02 11:03:45;;;;;;;4.28;2.60;;;22.30;40.40;;;;;;6160565;28;81412;-63
2021/06/02 11:06:45;;;;;;;11.10;3.20;;;22.30;41.40;;;;;;6165890;28;80354;-64
2021/06/02 11:09:46;;;;;;;25.80;3.60;;;22.30;41.80;;;;;;6169214;28;81398;-66
2021/06/02 11:12:50;;;;;;;9.77;3.50;;;22.30;39.80;;;;;;6163661;28;80893;-63
2021/06/02 11:15:51;;;;;;;6.25;2.45;;;22.30;38.10;;;;;;6166579;28;80717;-64
2021/06/02 11:18:52;;;;;;;10.30;3.50;;;22.30;36.80;;;;;;6165901;28;80410;-63
2021/06/02 11:21:53;;;;;;;6.72;2.40;;;22.30;36.80;;;;;;6160427;28;81032;-65
2021/06/02 11:24:53;;;;;;;6.22;2.88;;;22.30;36.10;;;;;;6161647;28;80667;-64
2021/06/02 11:27:53;;;;;;;5.63;2.80;;;22.30;36.90;;;;;;6160527;28;81414;-64
2021/06/02 11:30:54;;;;;;;7.10;3.13;;;22.30;35.90;;;;;;6158098;28;81339;-64
2021/06/02 11:33:54;;;;;;;8.10;2.85;;;22.30;35.20;;;;;;6167439;28;80453;-66
2021/06/02 11:36:55;;;;;;;8.38;3.28;;;22.30;35.30;;;;;;6165942;28;80344;-64
2021/06/02 11:39:55;;;;;;;5.18;2.72;;;22.30;35.30;;;;;;6176901;28;83644;-64
2021/06/02 11:42:56;;;;;;;7.18;2.92;;;22.30;35.70;;;;;;6176686;28;80822;-64
2021/06/02 11:45:59;;;;;;;7.65;3.33;;;22.30;35.20;;;;;;6161742;28;80979;-64
2021/06/02 11:49:00;;;;;;;12.32;4.07;;;22.30;34.80;;;;;;6166606;28;80924;-64
2021/06/02 11:52:00;;;;;;;6.70;3.38;;;22.30;36.40;;;;;;6176885;28;80526;-65
2021/06/02 11:55:01;;;;;;;7.97;3.20;;;22.30;36.40;;;;;;6180993;28;80884;-65
2021/06/02 11:58:02;;;;;;;6.72;2.85;;;22.30;34.80;;;;;;6178807;28;80217;-62
2021/06/02 12:01:03;;;;;;;7.50;3.38;;;22.30;34.80;;;;;;6192986;28;81684;-63
2021/06/02 12:04:03;;;;;;;12.93;5.32;;;22.30;35.50;;;;;;6168125;28;80467;-63
2021/06/02 12:07:04;;;;;;;11.05;5.13;;;22.30;35.20;;;;;;6152185;28;84174;-64
2021/06/02 12:10:04;;;;;;;5.30;4.28;;;22.40;35.60;;;;;;6159603;28;80163;-65
2021/06/02 12:13:05;;;;;;;6.20;4.50;;;22.30;35.30;;;;;;6172783;28;81709;-66
2021/06/02 12:16:07;;;;;;;5.57;3.40;;;22.30;35.50;;;;;;6171723;28;80628;-67
2021/06/02 12:19:08;;;;;;;5.82;3.60;;;22.40;35.20;;;;;;6169545;28;80721;-63
2021/06/02 12:22:08;;;;;;;4.18;3.45;;;22.40;35.10;;;;;;6169250;28;80546;-65
2021/06/02 12:25:09;;;;;;;9.15;3.38;;;22.40;35.30;;;;;;6178987;28;84410;-64
2021/06/02 12:28:10;;;;;;;5.38;2.90;;;22.40;35.00;;;;;;6180481;28;80359;-64
2021/06/02 12:31:10;;;;;;;5.88;2.97;;;22.40;35.30;;;;;;6169003;28;82926;-65
2021/06/02 12:34:11;;;;;;;7.60;3.47;;;22.40;35.30;;;;;;6177251;28;80443;-64
2021/06/02 12:37:11;;;;;;;11.35;3.30;;;22.40;35.40;;;;;;6178677;28;80610;-64
2021/06/02 12:40:12;;;;;;;2.80;2.38;;;22.40;35.20;;;;;;6164033;28;80189;-65
2021/06/02 12:43:13;;;;;;;5.53;2.70;;;22.40;35.50;;;;;;6168376;28;80480;-64
2021/06/02 12:46:13;;;;;;;5.45;2.90;;;22.40;35.80;;;;;;6179366;28;80889;-65
2021/06/02 12:49:14;;;;;;;7.13;2.95;;;22.40;36.00;;;;;;6167654;28;90121;-65
2021/06/02 12:52:15;;;;;;;4.30;2.55;;;22.40;36.10;;;;;;6157220;28;80496;-65
2021/06/02 12:55:16;;;;;;;3.63;2.40;;;22.40;36.10;;;;;;6168046;28;83823;-64
2021/06/02 12:58:16;;;;;;;4.22;2.78;;;22.40;36.40;;;;;;6185383;28;81115;-65
2021/06/02 13:01:17;;;;;;;6.60;3.47;;;22.40;36.70;;;;;;6172558;28;80668;-65
2021/06/02 13:04:17;;;;;;;4.72;2.88;;;22.40;36.40;;;;;;6198792;28;82131;-65
2021/06/02 13:07:18;;;;;;;5.07;3.00;;;22.40;36.80;;;;;;6179478;28;80369;-63
2021/06/02 13:10:19;;;;;;;4.68;2.78;;;22.30;36.80;;;;;;6182714;28;81104;-61
2021/06/02 13:13:19;;;;;;;5.30;2.78;;;22.40;37.40;;;;;;6168521;28;82531;-64
2021/06/02 13:16:21;;;;;;;7.07;3.08;;;22.40;37.50;;;;;;6173614;28;80594;-63
2021/06/02 13:19:21;;;;;;;4.97;2.90;;;22.40;38.10;;;;;;6168826;28;83302;-64
2021/06/02 13:22:22;;;;;;;5.50;3.03;;;22.40;37.70;;;;;;6172151;28;80902;-63
2021/06/02 13:25:23;;;;;;;3.47;2.80;;;22.40;37.40;;;;;;6170632;28;80195;-64
2021/06/02 13:28:23;;;;;;;3.25;2.80;;;22.40;37.60;;;;;;6160332;28;80884;-64
2021/06/02 13:31:24;;;;;;;6.00;3.10;;;22.40;37.20;;;;;;6158038;28;81471;-63
2021/06/02 13:34:24;;;;;;;4.40;2.83;;;22.40;37.30;;;;;;6159593;28;80370;-62
2021/06/02 13:37:25;;;;;;;6.03;2.85;;;22.40;37.70;;;;;;6155649;28;81368;-65
2021/06/02 13:40:25;;;;;;;5.38;2.70;;;22.40;37.80;;;;;;6162005;28;80355;-64
2021/06/02 13:43:26;;;;;;;7.15;2.70;;;22.40;38.20;;;;;;6161125;28;80479;-64
2021/06/02 13:46:27;;;;;;;3.00;2.40;;;22.40;38.30;;;;;;6188085;28;81373;-64
2021/06/02 13:49:28;;;;;;;5.30;2.72;;;22.40;38.40;;;;;;6166261;28;80826;-63
2021/06/02 13:52:28;;;;;;;3.90;2.45;;;22.40;38.60;;;;;;6168635;28;81190;-66
2021/06/02 13:55:29;;;;;;;3.97;2.55;;;22.40;38.50;;;;;;6193199;28;86513;-64
2021/06/02 13:58:29;;;;;;;6.28;2.47;;;22.40;38.20;;;;;;6197401;28;80648;-64
2021/06/02 14:01:30;;;;;;;10.10;2.97;;;22.40;38.60;;;;;;6181500;28;80995;-65
2021/06/02 14:04:30;;;;;;;3.70;2.60;;;22.40;38.90;;;;;;6174188;28;81080;-64
2021/06/02 14:07:31;;;;;;;5.00;3.28;;;22.40;39.00;;;;;;6180061;28;80673;-63
2021/06/02 14:10:31;;;;;;;7.20;2.90;;;22.40;39.30;;;;;;6181243;28;80678;-63
2021/06/02 14:13:32;;;;;;;4.30;3.13;;;22.40;39.20;;;;;;6183143;28;80612;-65
2021/06/02 14:16:33;;;;;;;7.82;3.40;;;22.40;40.10;;;;;;6162916;28;80273;-63
2021/06/02 14:19:33;;;;;;;7.82;4.13;;;22.40;39.70;;;;;;6170439;28;80778;-63
2021/06/02 14:22:36;;;;;;;6.75;3.47;;;22.40;39.80;;;;;;6160014;28;80937;-63
2021/06/02 14:25:36;;;;;;;7.88;3.72;;;22.50;38.90;;;;;;6157524;28;80418;-63
2021/06/02 14:28:37;;;;;;;5.30;3.92;;;22.50;38.90;;;;;;6153154;28;80787;-63
2021/06/02 14:31:37;;;;;;;5.38;3.40;;;22.50;39.10;;;;;;6177822;28;80922;-64
2021/06/02 14:34:38;;;;;;;4.70;3.88;;;22.50;39.50;;;;;;6165222;28;80626;-63
2021/06/02 14:37:42;;;;;;;10.95;3.78;;;22.60;39.60;;;;;;6174794;28;80373;-65
2021/06/02 14:40:43;;;;;;;7.10;3.55;;;22.60;39.20;;;;;;6176628;28;80492;-66
2021/06/02 14:43:44;;;;;;;5.63;3.35;;;22.60;39.50;;;;;;6179948;28;81099;-64
2021/06/02 14:46:44;;;;;;;7.13;3.85;;;22.60;39.70;;;;;;6180905;28;83903;-64
2021/06/02 14:49:45;;;;;;;7.20;3.83;;;22.50;39.50;;;;;;6181649;28;81055;-65
2021/06/02 14:52:45;;;;;;;4.43;3.03;;;22.50;39.60;;;;;;6181253;28;80869;-65
2021/06/02 14:55:46;;;;;;;6.35;3.33;;;22.50;39.50;;;;;;6181437;28;80610;-65
2021/06/02 14:58:47;;;;;;;7.63;3.53;;;22.50;39.50;;;;;;6157040;28;80492;-62
2021/06/02 15:01:47;;;;;;;6.47;3.10;;;22.50;39.20;;;;;;6173507;28;81749;-66
2021/06/02 15:04:48;;;;;;;8.77;3.08;;;22.50;39.80;;;;;;6174647;28;81451;-65
2021/06/02 15:07:48;;;;;;;4.15;2.90;;;22.50;39.40;;;;;;6156043;28;80470;-64
2021/06/02 15:10:49;;;;;;;4.65;2.92;;;22.50;38.40;;;;;;6155970;28;83651;-63
2021/06/02 15:13:49;;;;;;;5.38;3.30;;;22.50;38.80;;;;;;6149721;28;80461;-63
2021/06/02 15:16:51;;;;;;;8.65;3.00;;;22.50;39.00;;;;;;6175371;28;81426;-64
2021/06/02 15:19:52;;;;;;;5.65;3.50;;;22.50;39.70;;;;;;6162441;28;81242;-64
2021/06/02 15:22:53;;;;;;;4.47;2.85;;;22.50;39.50;;;;;;6155965;28;80148;-63
2021/06/02 15:25:53;;;;;;;5.75;3.03;;;22.50;39.50;;;;;;6164388;28;80570;-63
2021/06/02 15:28:54;;;;;;;6.40;3.30;;;22.40;40.30;;;;;;6174494;28;80351;-64
2021/06/02 15:31:54;;;;;;;4.28;2.97;;;22.50;39.60;;;;;;6179598;28;81029;-63
2021/06/02 15:34:55;;;;;;;5.68;3.00;;;22.50;39.70;;;;;;6161662;28;80943;-64